Weather at Enrico Mattei Airfield

Public forecast

Using degrees Celsius for public forecast. Weather courtesy of forecast.io.

Closest aviation weather report (METAR) to Enrico Mattei Airfield

Closest report is Marina di Ginosa Heliport, 15.3 nm (28.3 km) E.

2024/05/21 12:55 (retrieved 2 hours ago)

LIBH 211255Z 25014KT 210V280 CAVOK 31/14 Q1008 RMK SKC QUK 3 QUL 2 S VIS MAR 20 KM VIS MIN 9999

Closest aviation forecast (TAF) to Enrico Mattei Airfield

Closest forecast is Bari Karol Wojtyła Airport, 43.5 nm (80.5 km) NNE.

2024/05/21 12:00 (retrieved 3 hours ago)

TAF LIBD 211100Z 2112/2212 27016KT CAVOK BECMG 2207/2209 34014KT TAF LIBP 211100Z 2112/2212 06012KT 9999 SCT020 TEMPO 2112/2118 TSRA BECMG 2118/2120 21012KT TEMPO 2121/2205 21015G25KT BECMG 2210/2212 06012KT